Time;durP1;ratioP1;P1;durP2;ratioP2;P2;SDS_P1;SDS_P2;PMS_P1;PMS_P2;Temp;Humidity;BMP_temperature;BMP_pressure;BME280_temperature;BME280_humidity;BME280_pressure;Samples;Min_cycle;Max_cycle;Signal;HPM_P1;HPM_P2
2022/01/22 00:01:22;;;;;;;6.85;5.88;;;;;;;6.21;72.46;101577.38;10490718;28;20126;-70
2022/01/22 00:06:24;;;;;;;9.32;6.90;;;;;;;6.21;72.67;101582.66;10509732;28;20048;-71
2022/01/22 00:11:33;;;;;;;7.97;7.10;;;;;;;6.23;72.38;101570.22;10492629;28;20130;-71
2022/01/22 00:16:35;;;;;;;8.52;5.85;;;;;;;6.24;71.97;101578.09;10490631;28;20115;-71
2022/01/22 00:21:37;;;;;;;8.00;7.20;;;;;;;6.06;72.65;101584.13;10521102;22;20044;-55
2022/01/22 00:26:40;;;;;;;9.27;6.88;;;;;;;6.26;72.09;101580.66;10497991;28;20079;-54
2022/01/22 00:31:42;;;;;;;8.57;6.57;;;;;;;6.29;72.03;101585.81;10496487;28;20105;-54
2022/01/22 00:36:43;;;;;;;7.93;6.68;;;;;;;6.10;72.04;101591.03;10490730;28;20044;-54
2022/01/22 00:41:45;;;;;;;6.65;5.97;;;;;;;5.85;73.12;101602.53;10496023;28;20090;-55
2022/01/22 00:46:46;;;;;;;7.22;6.68;;;;;;;6.03;72.20;101597.47;10495309;28;20067;-54
2022/01/22 00:51:47;;;;;;;7.53;6.22;;;;;;;6.09;72.36;101594.59;10494596;28;20508;-54
2022/01/22 00:56:49;;;;;;;8.15;5.50;;;;;;;6.19;71.30;101591.50;10493615;28;20138;-56
2022/01/22 01:01:51;;;;;;;7.43;6.05;;;;;;;5.99;72.26;101583.50;10491309;28;20587;-55
2022/01/22 01:06:53;;;;;;;9.15;6.20;;;;;;;6.12;71.79;101600.59;10493445;28;20075;-57
2022/01/22 01:12:00;;;;;;;5.30;4.80;;;;;;;6.14;71.58;101597.88;10489936;28;20075;-55
2022/01/22 01:38:04;;;;;;;5.32;3.72;;;;;;;6.29;70.93;101593.75;10489948;28;20101;-56
2022/01/22 01:43:11;;;;;;;5.97;3.33;;;;;;;6.14;70.51;101589.97;10492182;28;20068;-55
2022/01/22 01:48:18;;;;;;;4.80;2.90;;;;;;;6.10;70.85;101601.59;10489836;28;20070;-55
2022/01/22 01:53:40;;;;;;;4.32;3.00;;;;;;;6.01;70.74;101590.47;10489948;28;21449;-55
2022/01/22 01:58:41;;;;;;;4.85;3.00;;;;;;;5.99;71.09;101578.22;10493241;28;25063;-55
2022/01/22 02:03:42;;;;;;;3.72;3.00;;;;;;;6.04;71.27;101586.00;10491646;28;20314;-55
2022/01/22 02:08:44;;;;;;;6.60;3.47;;;;;;;5.91;71.01;101583.78;10495008;28;20048;-55
2022/01/22 02:14:00;;;;;;;5.68;3.13;;;;;;;5.88;70.94;101586.53;10491292;28;20064;-58
2022/01/22 02:23:33;;;;;;;8.18;3.75;;;;;;;5.93;70.53;101589.00;10491606;28;20044;-56
2022/01/22 02:24:32;;;;;;;4.60;3.08;;;;;;;5.95;70.65;101585.38;10487184;28;20068;-56
2022/01/22 02:29:34;;;;;;;5.00;3.17;;;;;;;5.97;70.83;101586.22;10493369;28;20101;-55
2022/01/22 02:34:44;;;;;;;4.10;3.55;;;;;;;5.74;71.19;101583.59;10487552;28;20489;-56
2022/01/22 02:40:11;;;;;;;3.58;2.38;;;;;;;5.79;71.04;101576.34;10491786;28;20091;-56
2022/01/22 02:45:10;;;;;;;3.17;2.60;;;;;;;5.73;70.72;101547.53;10487430;28;20374;-56
2022/01/22 02:50:13;;;;;;;3.75;2.63;;;;;;;5.71;70.98;101570.50;10489091;28;20064;-55
2022/01/22 02:55:15;;;;;;;5.15;2.70;;;;;;;5.80;70.94;101578.06;10489979;28;20307;-55
2022/01/22 03:00:21;;;;;;;3.17;2.60;;;;;;;5.85;70.87;101570.81;10485512;28;20048;-56
2022/01/22 03:05:23;;;;;;;4.38;3.20;;;;;;;5.92;70.83;101572.31;10489829;28;20117;-56
2022/01/22 03:10:26;;;;;;;8.30;3.63;;;;;;;6.04;70.50;101576.25;10489233;28;20177;-55
2022/01/22 03:20:42;;;;;;;3.60;2.55;;;;;;;5.83;71.05;101572.66;10489475;28;20051;-55
2022/01/22 03:31:04;;;;;;;4.22;2.28;;;;;;;5.68;70.80;101541.56;10498008;28;20044;-56
2022/01/22 03:36:06;;;;;;;3.17;2.88;;;;;;;5.88;70.96;101568.03;10490433;28;20141;-55
2022/01/22 03:41:08;;;;;;;3.00;2.67;;;;;;;5.89;71.35;101572.41;10497369;28;20846;-56
2022/01/22 03:46:09;;;;;;;3.25;2.60;;;;;;;6.01;71.00;101569.31;10497197;28;20109;-56
2022/01/22 03:51:11;;;;;;;3.25;2.60;;;;;;;6.03;70.68;101574.53;10497802;28;20072;-56
2022/01/22 03:56:14;;;;;;;2.05;1.85;;;;;;;6.06;70.87;101563.84;10496733;28;20123;-55
2022/01/22 04:11:38;;;;;;;2.20;2.00;;;;;;;6.06;71.08;101561.19;10498837;28;20119;-55
2022/01/22 04:16:47;;;;;;;2.67;2.25;;;;;;;6.04;70.48;101546.34;10496785;28;20051;-55
2022/01/22 04:27:12;;;;;;;3.08;2.20;;;;;;;6.08;71.64;101562.00;10498624;28;20489;-56
2022/01/22 04:32:13;;;;;;;2.20;2.00;;;;;;;5.79;72.65;101553.41;10513663;28;20071;-55
2022/01/22 04:37:17;;;;;;;3.40;3.10;;;;;;;5.82;72.49;101552.44;10494252;28;20076;-56
2022/01/22 04:42:20;;;;;;;2.53;2.33;;;;;;;6.10;71.88;101561.94;10490643;28;20051;-55
2022/01/22 04:47:36;;;;;;;2.05;1.85;;;;;;;6.11;71.60;101571.56;10497144;28;20052;-55
2022/01/22 04:52:42;;;;;;;3.03;2.20;;;;;;;6.17;71.30;101568.69;10490859;28;20075;-55
2022/01/22 04:57:43;;;;;;;2.65;2.45;;;;;;;6.14;71.93;101571.44;10493606;28;20105;-56
2022/01/22 05:02:45;;;;;;;3.10;2.58;;;;;;;6.18;71.33;101567.75;10495412;28;20067;-55
2022/01/22 05:07:46;;;;;;;3.90;3.17;;;;;;;6.21;71.55;101567.63;10494113;28;20134;-56
2022/01/22 05:12:49;;;;;;;2.20;2.00;;;;;;;6.27;71.10;101567.38;10491591;28;20143;-55
2022/01/22 05:17:50;;;;;;;2.75;1.70;;;;;;;6.33;70.95;101583.00;10492704;28;20828;-54
2022/01/22 05:23:05;;;;;;;2.95;2.08;;;;;;;6.27;71.35;101587.69;10492915;28;20862;-54
2022/01/22 05:28:29;;;;;;;1.85;1.75;;;;;;;6.06;71.64;101560.34;10482411;28;20806;-55
2022/01/22 05:36:54;;;;;;;2.25;2.05;;;;;;;6.35;71.43;101586.44;10493677;28;20429;-55
2022/01/22 05:38:49;;;;;;;2.30;1.90;;;;;;;6.31;71.60;101590.13;10497089;28;20065;-56
2022/01/22 05:43:51;;;;;;;3.20;2.17;;;;;;;6.46;71.54;101593.09;10489446;28;20048;-55
2022/01/22 05:48:52;;;;;;;2.80;2.45;;;;;;;6.07;72.15;101591.16;10487857;28;20044;-56
2022/01/22 06:04:34;;;;;;;3.05;2.55;;;;;;;6.21;72.27;101598.53;10487970;28;20076;-55
2022/01/22 06:09:39;;;;;;;2.90;2.70;;;;;;;6.35;72.13;101602.31;10488612;28;20040;-56
2022/01/22 06:14:42;;;;;;;3.17;2.88;;;;;;;6.38;72.02;101606.63;10488170;28;20040;-56
2022/01/22 06:19:43;;;;;;;2.90;2.60;;;;;;;6.39;71.58;101608.34;10490817;28;21103;-55
2022/01/22 06:24:45;;;;;;;4.45;3.10;;;;;;;6.41;72.05;101616.19;10487175;28;20547;-58
2022/01/22 06:29:46;;;;;;;3.35;2.90;;;;;;;6.34;72.43;101605.88;10507390;22;20093;-63
2022/01/22 06:34:48;;;;;;;3.00;2.70;;;;;;;6.44;72.65;101614.31;10493023;28;20121;-64
2022/01/22 06:45:06;;;;;;;3.55;3.00;;;;;;;6.39;72.71;101610.13;10497956;28;20077;-66
2022/01/22 06:50:08;;;;;;;4.30;3.22;;;;;;;6.29;73.03;101610.50;10470640;28;20055;-64
2022/01/22 06:55:12;;;;;;;4.03;3.63;;;;;;;6.43;72.87;101619.66;10474706;28;20162;-64
2022/01/22 07:00:14;;;;;;;4.03;3.63;;;;;;;6.48;72.38;101629.09;10460589;28;20169;-65
2022/01/22 07:05:16;;;;;;;4.50;4.10;;;;;;;6.26;73.12;101634.44;10463789;28;20252;-65
2022/01/22 07:10:17;;;;;;;4.32;4.03;;;;;;;6.36;73.46;101656.06;10450678;28;20052;-64
2022/01/22 07:15:20;;;;;;;4.90;4.50;;;;;;;6.35;73.08;101660.50;10469855;28;20052;-64
2022/01/22 07:20:34;;;;;;;4.50;4.10;;;;;;;6.48;72.71;101660.84;10446531;28;20052;-64
2022/01/22 07:25:35;;;;;;;5.60;5.10;;;;;;;6.52;73.17;101666.91;10478746;28;20055;-64
2022/01/22 07:30:39;;;;;;;5.55;5.05;;;;;;;6.61;72.58;101677.09;10468963;28;20113;-64
2022/01/22 07:35:40;;;;;;;5.15;4.65;;;;;;;6.56;72.65;101681.72;10463303;28;20197;-65
2022/01/22 07:40:42;;;;;;;5.90;5.22;;;;;;;6.52;73.08;101666.91;10464024;28;20174;-64
2022/01/22 07:45:44;;;;;;;5.10;4.60;;;;;;;6.43;73.65;101660.19;10462893;28;20068;-64
2022/01/22 07:50:45;;;;;;;5.80;5.30;;;;;;;6.62;73.14;101670.88;10461693;28;20113;-65
2022/01/22 07:55:47;;;;;;;5.55;5.07;;;;;;;6.67;72.57;101666.25;10460623;28;20631;-64
2022/01/22 08:00:48;;;;;;;5.18;4.75;;;;;;;6.67;73.06;101682.13;10494002;28;20040;-64
2022/01/22 08:05:49;;;;;;;5.93;5.43;;;;;;;6.62;73.10;101688.53;10458486;28;20096;-64
2022/01/22 08:10:52;;;;;;;6.35;5.20;;;;;;;6.54;73.52;101691.50;10457772;28;20610;-65
2022/01/22 08:15:53;;;;;;;5.10;4.68;;;;;;;6.52;73.35;101678.31;10460340;28;20133;-63
2022/01/22 08:20:55;;;;;;;5.35;4.95;;;;;;;6.70;72.89;101682.00;10460357;28;20083;-64
2022/01/22 08:25:56;;;;;;;5.22;4.82;;;;;;;6.80;73.04;101693.09;10459607;28;20110;-65
2022/01/22 08:31:03;;;;;;;4.93;4.43;;;;;;;6.76;72.67;101701.22;10458998;28;20175;-64
2022/01/22 08:36:05;;;;;;;5.18;4.68;;;;;;;6.78;73.09;101704.66;10463994;28;20589;-64
2022/01/22 08:41:06;;;;;;;4.93;4.43;;;;;;;6.86;72.76;101708.72;10446951;28;20684;-64
2022/01/22 08:46:08;;;;;;;4.95;4.47;;;;;;;6.41;73.84;101711.41;10464080;28;20169;-65
2022/01/22 08:51:09;;;;;;;7.22;4.82;;;;;;;6.61;73.86;101723.88;10457106;28;20539;-64
2022/01/22 08:56:19;;;;;;;6.40;5.32;;;;;;;6.59;74.73;101718.66;10464760;28;20048;-65
2022/01/22 09:01:22;;;;;;;5.80;5.30;;;;;;;6.73;73.57;101713.63;10467697;28;20152;-64
2022/01/22 09:06:23;;;;;;;5.68;4.78;;;;;;;6.79;73.63;101722.25;10462827;28;20056;-64
2022/01/22 09:11:25;;;;;;;6.07;5.57;;;;;;;6.90;73.26;101725.31;10444634;28;20835;-64
2022/01/22 09:16:26;;;;;;;5.45;4.95;;;;;;;6.88;73.36;101721.88;10459865;28;20064;-65
2022/01/22 09:21:28;;;;;;;6.78;6.18;;;;;;;7.03;72.77;101730.97;10466215;28;20052;-64
2022/01/22 09:26:29;;;;;;;8.50;6.68;;;;;;;7.11;72.58;101728.00;10463442;28;20556;-63
2022/01/22 09:31:32;;;;;;;8.70;6.68;;;;;;;7.22;71.99;101731.03;10454433;28;20052;-64
2022/01/22 09:36:34;;;;;;;6.07;5.55;;;;;;;7.11;72.47;101736.78;10453558;28;20056;-64
2022/01/22 09:41:37;;;;;;;7.38;6.68;;;;;;;7.20;72.36;101744.34;10472903;28;20101;-63
2022/01/22 09:46:58;;;;;;;7.65;6.95;;;;;;;7.17;72.46;101748.91;10465903;28;20059;-66
2022/01/22 09:52:00;;;;;;;7.38;6.68;;;;;;;7.11;72.79;101735.94;10435366;28;20167;-65
2022/01/22 09:57:04;;;;;;;7.53;6.85;;;;;;;7.13;73.17;101747.31;10461495;28;20108;-64
2022/01/22 10:02:07;;;;;;;7.75;7.05;;;;;;;7.27;72.63;101750.25;10465319;28;20193;-64
2022/01/22 10:07:21;;;;;;;7.57;6.88;;;;;;;7.22;72.51;101744.25;10459033;28;20330;-63
2022/01/22 10:12:23;;;;;;;8.07;7.35;;;;;;;7.04;73.21;101741.50;10460297;28;20039;-64
2022/01/22 10:17:54;;;;;;;8.90;8.07;;;;;;;7.30;72.80;101739.53;10438457;28;20173;-64
2022/01/22 10:23:04;;;;;;;8.38;7.50;;;;;;;7.31;72.69;101745.66;10457199;28;20541;-63
2022/01/22 10:28:10;;;;;;;8.73;7.93;;;;;;;7.51;72.06;101755.41;10459996;28;20146;-63
2022/01/22 10:33:35;;;;;;;8.65;7.85;;;;;;;7.71;71.30;101750.09;10458393;28;20165;-65
2022/01/22 10:38:45;;;;;;;7.90;6.30;;;;;;;7.73;70.93;101763.25;10457030;28;20044;-65
2022/01/22 10:43:55;;;;;;;7.20;6.50;;;;;;;7.56;71.36;101767.50;10455642;28;20152;-64
2022/01/22 10:49:00;;;;;;;7.22;6.63;;;;;;;7.60;71.51;101768.25;10460818;28;20044;-67
2022/01/22 10:54:03;;;;;;;7.47;6.72;;;;;;;7.43;71.76;101767.22;10456800;28;20521;-64
2022/01/22 10:59:10;;;;;;;8.75;7.93;;;;;;;7.47;72.21;101761.78;10437608;28;20060;-65
2022/01/22 11:04:17;;;;;;;9.13;8.23;;;;;;;7.54;71.89;101757.94;10467039;28;20049;-64
2022/01/22 11:09:20;;;;;;;8.88;7.97;;;;;;;7.60;71.79;101762.97;10460229;28;20044;-65
2022/01/22 11:14:23;;;;;;;10.00;8.65;;;;;;;7.65;72.00;101766.25;10469700;28;20291;-65
2022/01/22 11:19:33;;;;;;;8.43;7.63;;;;;;;7.69;71.58;101773.16;10456850;28;20076;-66
2022/01/22 11:24:41;;;;;;;9.15;7.82;;;;;;;7.65;71.76;101781.31;10460616;28;20075;-65
2022/01/22 11:30:05;;;;;;;9.68;8.68;;;;;;;7.80;71.28;101780.63;10455770;28;20556;-65
2022/01/22 11:35:08;;;;;;;9.50;8.40;;;;;;;7.86;70.99;101785.66;10437779;28;20191;-67
2022/01/22 11:40:13;;;;;;;9.35;8.20;;;;;;;7.93;70.21;101783.59;10471141;28;20066;-66
2022/01/22 11:45:29;;;;;;;8.10;7.30;;;;;;;7.83;70.50;101774.34;10447772;28;20157;-65
2022/01/22 11:50:30;;;;;;;7.35;6.65;;;;;;;7.87;70.31;101775.94;10462890;28;20178;-65
2022/01/22 11:55:32;;;;;;;6.95;6.25;;;;;;;8.17;68.50;101768.34;10465240;28;20055;-65
2022/01/22 12:00:40;;;;;;;5.18;4.68;;;;;;;8.18;67.68;101779.81;10463223;28;20122;-65
2022/01/22 12:05:54;;;;;;;5.18;4.68;;;;;;;8.78;66.17;101769.94;10440448;28;20047;-65
2022/01/22 12:16:03;;;;;;;4.53;3.95;;;;;;;8.43;66.19;101767.13;10456026;28;20075;-65
2022/01/22 12:26:09;;;;;;;5.10;4.60;;;;;;;8.02;66.84;101769.91;10457861;28;20743;-66
2022/01/22 12:31:17;;;;;;;4.40;4.00;;;;;;;7.57;68.41;101774.53;10456232;28;20138;-65
2022/01/22 12:36:25;;;;;;;4.40;4.00;;;;;;;7.59;68.44;101761.22;10456577;28;20036;-65
2022/01/22 12:46:29;;;;;;;4.20;3.80;;;;;;;7.46;68.32;101755.63;10460243;28;20055;-64
2022/01/22 12:51:33;;;;;;;10.18;9.18;;;;;;;7.07;69.61;101759.00;10466909;28;20136;-65
2022/01/22 12:56:51;;;;;;;5.00;4.53;;;;;;;7.22;70.33;101758.41;10463441;28;20649;-67
2022/01/22 13:01:53;;;;;;;5.03;4.53;;;;;;;7.29;69.40;101758.13;10458866;28;20162;-65
2022/01/22 13:06:54;;;;;;;5.65;4.53;;;;;;;7.22;69.82;101749.56;10444080;28;20149;-69
2022/01/22 13:11:57;;;;;;;5.30;4.80;;;;;;;7.22;70.11;101749.56;10461707;28;20117;-65
2022/01/22 13:16:59;;;;;;;5.95;4.93;;;;;;;7.36;69.93;101744.56;10462782;28;20068;-65
2022/01/22 13:22:01;;;;;;;5.22;4.72;;;;;;;7.43;69.51;101745.13;10459240;28;20626;-65
2022/01/22 13:27:10;;;;;;;5.25;4.75;;;;;;;7.44;70.32;101749.50;10460706;28;20101;-64
2022/01/22 13:32:19;;;;;;;6.07;4.70;;;;;;;7.57;69.59;101748.03;10459748;28;20119;-65
2022/01/22 13:47:54;;;;;;;5.68;4.50;;;;;;;7.87;69.31;101739.66;10455825;28;20054;-65
2022/01/22 13:53:15;;;;;;;6.22;5.00;;;;;;;7.82;68.27;101748.75;10449384;28;20051;-64
2022/01/22 13:58:19;;;;;;;5.45;4.95;;;;;;;7.82;68.46;101751.41;10462682;28;20224;-65
2022/01/22 14:08:32;;;;;;;4.35;3.80;;;;;;;8.10;67.63;101738.59;10462945;28;20048;-65
2022/01/22 14:13:35;;;;;;;6.63;4.85;;;;;;;8.06;67.62;101739.69;10462206;28;20071;-65
2022/01/22 14:18:41;;;;;;;4.95;3.58;;;;;;;7.84;67.53;101747.75;10455928;28;20135;-66
2022/01/22 14:23:43;;;;;;;4.55;3.40;;;;;;;7.82;67.89;101746.09;10460884;28;20109;-66
2022/01/22 14:28:47;;;;;;;3.50;3.10;;;;;;;7.91;67.87;101743.00;10458111;28;20044;-66
2022/01/22 14:33:48;;;;;;;13.68;10.80;;;;;;;7.84;68.38;101738.94;10456263;28;20516;-65
2022/01/22 14:49:09;;;;;;;3.15;2.85;;;;;;;7.97;66.91;101753.34;10448626;28;20055;-66
2022/01/22 14:54:10;;;;;;;5.85;3.63;;;;;;;8.06;66.41;101767.97;10447480;28;20253;-66
2022/01/22 14:59:12;;;;;;;4.03;3.40;;;;;;;7.85;67.34;101768.03;10448058;28;20288;-65
2022/01/22 15:04:13;;;;;;;4.55;2.63;;;;;;;7.86;66.90;101764.44;10450164;28;20052;-65
2022/01/22 15:09:30;;;;;;;3.67;3.05;;;;;;;8.06;66.66;101770.63;10453380;28;20730;-66
2022/01/22 15:14:32;;;;;;;3.00;2.60;;;;;;;8.09;66.22;101766.06;10449777;28;20805;-65
2022/01/22 15:19:39;;;;;;;3.35;2.60;;;;;;;8.14;66.19;101773.81;10453748;28;20567;-65
2022/01/22 15:24:42;;;;;;;3.15;2.17;;;;;;;8.14;66.41;101774.66;10451896;28;20036;-65
2022/01/22 15:29:57;;;;;;;4.32;2.83;;;;;;;8.19;65.83;101782.41;10451988;28;20128;-64
2022/01/22 15:34:59;;;;;;;3.03;2.42;;;;;;;8.25;65.77;101775.97;10456383;28;20625;-65
2022/01/22 15:40:04;;;;;;;3.00;2.22;;;;;;;8.27;65.94;101784.69;10452117;28;21457;-64
2022/01/22 15:45:06;;;;;;;3.60;2.95;;;;;;;8.21;65.73;101788.50;10433218;28;20148;-64
2022/01/22 15:50:08;;;;;;;3.50;3.20;;;;;;;8.29;66.26;101793.47;10433693;28;20143;-64
2022/01/22 15:55:30;;;;;;;4.13;3.72;;;;;;;8.03;66.27;101784.91;10459596;28;20068;-64
2022/01/22 16:00:36;;;;;;;3.40;2.67;;;;;;;8.11;65.79;101796.00;10459334;28;20056;-64
2022/01/22 16:05:39;;;;;;;3.10;2.47;;;;;;;7.77;67.27;101802.81;10459449;28;20090;-64
2022/01/22 16:10:41;;;;;;;5.00;3.90;;;;;;;7.96;66.45;101799.38;10460410;28;20121;-63
2022/01/22 16:15:43;;;;;;;3.00;2.63;;;;;;;7.83;66.27;101803.50;10456424;28;20677;-64
2022/01/22 16:20:44;;;;;;;3.58;2.90;;;;;;;7.69;67.33;101810.25;10457429;28;20048;-65
2022/01/22 16:25:46;;;;;;;4.18;3.50;;;;;;;7.84;67.39;101813.19;10458081;28;20178;-65
2022/01/22 16:30:48;;;;;;;4.28;3.13;;;;;;;7.66;67.68;101822.81;10454626;28;20712;-64
2022/01/22 16:35:51;;;;;;;3.25;2.92;;;;;;;7.86;67.07;101829.88;10456607;28;20107;-65
2022/01/22 16:40:55;;;;;;;9.30;6.40;;;;;;;7.91;67.19;101830.50;10458607;28;20055;-65
2022/01/22 16:56:29;;;;;;;4.70;3.78;;;;;;;7.87;66.96;101831.59;10471779;28;20993;-64
2022/01/22 17:01:38;;;;;;;4.75;4.25;;;;;;;7.87;67.03;101834.25;10439137;28;20522;-65
2022/01/22 17:06:40;;;;;;;4.43;3.20;;;;;;;7.38;69.17;101837.22;10455176;28;20059;-64
2022/01/22 17:17:02;;;;;;;4.53;3.70;;;;;;;7.54;70.22;101837.44;10453380;28;21271;-63
2022/01/22 17:22:04;;;;;;;5.13;3.17;;;;;;;7.58;69.95;101844.31;10456533;28;20209;-64
2022/01/22 17:27:07;;;;;;;5.28;4.68;;;;;;;7.68;70.12;101844.78;10458422;28;20159;-64
2022/01/22 17:32:09;;;;;;;5.47;4.35;;;;;;;7.73;70.26;101848.09;10453498;28;20550;-64
2022/01/22 17:37:10;;;;;;;4.75;4.00;;;;;;;7.66;69.96;101847.50;10457738;28;20491;-64
2022/01/22 17:42:18;;;;;;;4.75;3.88;;;;;;;7.81;70.07;101855.69;10453100;28;20755;-63
2022/01/22 17:47:20;;;;;;;4.85;3.88;;;;;;;7.94;69.88;101855.13;10452463;28;20409;-64
2022/01/22 17:52:22;;;;;;;7.43;5.55;;;;;;;8.00;70.00;101866.38;10452975;28;20148;-67
2022/01/22 17:57:23;;;;;;;5.35;4.85;;;;;;;7.58;71.97;101854.91;10440992;28;20504;-64
2022/01/22 18:02:28;;;;;;;5.07;4.57;;;;;;;7.70;72.17;101870.31;10453775;28;20127;-64
2022/01/22 18:07:29;;;;;;;6.00;5.47;;;;;;;7.58;73.40;101858.44;10435471;28;20052;-65
2022/01/22 18:12:32;;;;;;;7.43;6.72;;;;;;;7.60;73.85;101853.91;10436614;28;20055;-64
2022/01/22 18:17:34;;;;;;;8.88;7.70;;;;;;;7.61;74.01;101858.31;10456485;28;20064;-64
2022/01/22 18:22:35;;;;;;;9.25;8.25;;;;;;;7.66;74.03;101841.34;10457112;28;20151;-65
2022/01/22 18:32:47;;;;;;;7.30;6.60;;;;;;;7.70;73.96;101867.66;10313874;28;20049;-64
2022/01/22 18:37:49;;;;;;;9.45;8.52;;;;;;;7.81;73.86;101871.59;10325906;28;20188;-63
2022/01/22 18:42:53;;;;;;;8.02;7.18;;;;;;;7.74;73.70;101871.88;10327842;28;20172;-64
2022/01/22 18:47:55;;;;;;;8.60;6.80;;;;;;;7.75;73.56;101873.59;10326921;28;20046;-63
2022/01/22 18:52:58;;;;;;;9.90;7.43;;;;;;;7.71;73.63;101872.00;10334206;28;20131;-63
2022/01/22 18:58:00;;;;;;;8.35;7.18;;;;;;;7.81;73.44;101877.78;10337571;28;20792;-65
2022/01/22 19:03:01;;;;;;;9.73;7.80;;;;;;;7.87;73.25;101881.97;10334419;28;20179;-64
2022/01/22 19:08:04;;;;;;;9.30;8.32;;;;;;;7.89;73.83;101885.41;10331197;28;20050;-58
2022/01/22 19:13:06;;;;;;;10.32;8.80;;;;;;;8.05;72.26;101877.66;10331285;28;20128;-64
2022/01/22 19:18:07;;;;;;;10.02;7.90;;;;;;;7.94;72.02;101888.72;10337813;28;20601;-64
2022/01/22 19:28:29;;;;;;;8.30;7.28;;;;;;;7.94;71.73;101886.06;10332523;28;20149;-65
2022/01/22 19:33:32;;;;;;;9.70;8.70;;;;;;;7.95;71.50;101885.16;10329438;28;20050;-64
2022/01/22 19:38:33;;;;;;;10.45;9.07;;;;;;;7.89;71.53;101874.81;10332408;28;20367;-64
2022/01/22 19:43:42;;;;;;;10.20;8.95;;;;;;;7.83;71.30;101875.06;10332904;28;20133;-64
2022/01/22 19:48:48;;;;;;;10.00;8.85;;;;;;;7.82;71.21;101876.00;10333511;28;20045;-64
2022/01/22 19:53:51;;;;;;;10.02;9.02;;;;;;;7.81;71.13;101871.59;10336077;28;20068;-64
2022/01/22 19:58:52;;;;;;;15.23;12.30;;;;;;;7.80;70.48;101878.72;10336480;28;20161;-65
2022/01/22 20:03:54;;;;;;;15.02;10.70;;;;;;;7.78;71.13;101878.78;10333369;28;20099;-65
2022/01/22 20:08:56;;;;;;;12.70;10.02;;;;;;;7.71;70.74;101879.13;10332314;28;20484;-65
2022/01/22 20:13:57;;;;;;;12.15;10.00;;;;;;;7.63;71.03;101887.41;10333135;28;20081;-63
2022/01/22 20:18:59;;;;;;;12.35;9.43;;;;;;;7.68;70.76;101872.13;10341779;28;20269;-63
2022/01/22 20:24:07;;;;;;;11.75;9.30;;;;;;;7.76;70.67;101870.03;10337551;28;20057;-63
2022/01/22 20:29:10;;;;;;;14.82;11.18;;;;;;;7.81;70.64;101867.19;10336060;28;20136;-64
2022/01/22 20:34:11;;;;;;;14.40;10.95;;;;;;;7.75;70.42;101863.00;10341910;28;20135;-63
2022/01/22 20:39:13;;;;;;;13.02;10.65;;;;;;;7.70;71.06;101865.00;10339122;28;20205;-62
2022/01/22 20:44:15;;;;;;;12.70;10.77;;;;;;;7.75;70.87;101862.16;10333161;28;20097;-63
2022/01/22 20:49:16;;;;;;;14.18;11.02;;;;;;;7.76;70.99;101853.25;10336653;28;20510;-64
2022/01/22 20:54:18;;;;;;;12.35;10.18;;;;;;;7.79;70.26;101848.69;10333395;28;21412;-63
2022/01/22 20:59:19;;;;;;;14.10;10.55;;;;;;;7.78;70.19;101846.97;10331853;28;20066;-63
2022/01/22 21:04:21;;;;;;;14.65;10.88;;;;;;;7.84;70.14;101851.16;10330183;28;20114;-63
2022/01/22 21:09:23;;;;;;;15.18;10.98;;;;;;;7.90;70.07;101871.25;10230360;28;20048;-63
2022/01/22 21:14:30;;;;;;;13.60;11.63;;;;;;;7.84;70.08;101871.50;10187020;28;20128;-63
2022/01/22 21:19:32;;;;;;;12.60;10.98;;;;;;;7.43;71.12;101878.50;10321798;28;20053;-63
2022/01/22 21:24:34;;;;;;;13.35;10.25;;;;;;;7.47;71.57;101875.72;10330946;28;20061;-66
2022/01/22 21:29:36;;;;;;;12.45;10.32;;;;;;;7.36;71.77;101868.22;10332210;28;21447;-64
2022/01/22 21:34:38;;;;;;;13.48;10.68;;;;;;;7.52;71.85;101866.66;10334453;28;20577;-64
2022/01/22 21:39:45;;;;;;;16.75;12.07;;;;;;;7.68;71.24;101864.19;10334133;28;20132;-64
2022/01/22 21:44:48;;;;;;;14.23;12.05;;;;;;;7.76;70.75;101864.75;10332698;28;20052;-64
2022/01/22 21:49:50;;;;;;;13.10;11.13;;;;;;;7.77;71.03;101869.09;10334370;28;20127;-63
2022/01/22 21:54:57;;;;;;;14.13;11.55;;;;;;;7.77;71.17;101868.25;10334097;28;20146;-63
2022/01/22 21:59:58;;;;;;;13.73;10.32;;;;;;;7.70;71.43;101865.00;10333749;28;20119;-63
2022/01/22 22:05:00;;;;;;;15.75;11.73;;;;;;;7.76;71.60;101864.75;10333564;28;20131;-64
2022/01/22 22:10:04;;;;;;;14.20;11.50;;;;;;;7.76;71.67;101874.47;10329278;28;20054;-63
2022/01/22 22:15:06;;;;;;;14.00;10.75;;;;;;;7.78;71.81;101870.81;10337212;28;20050;-63
2022/01/22 22:20:09;;;;;;;13.73;10.88;;;;;;;7.64;72.54;101880.28;10344015;28;20049;-63
2022/01/22 22:25:11;;;;;;;13.35;11.30;;;;;;;7.55;73.11;101878.88;10335712;28;20104;-63
2022/01/22 22:30:13;;;;;;;12.88;11.00;;;;;;;7.70;72.41;101874.72;10328571;28;20400;-63
2022/01/22 22:35:19;;;;;;;14.43;11.88;;;;;;;7.76;72.39;101883.28;10328269;28;20192;-67
2022/01/22 22:40:21;;;;;;;14.50;11.27;;;;;;;7.81;71.82;101876.91;10326313;28;20151;-63
2022/01/22 22:45:26;;;;;;;12.63;10.88;;;;;;;7.84;71.68;101887.41;10324237;28;20058;-62
2022/01/22 22:50:29;;;;;;;13.13;10.57;;;;;;;7.86;71.47;101880.25;10326612;28;20143;-62
2022/01/22 22:55:30;;;;;;;13.02;11.18;;;;;;;7.92;71.25;101882.63;10320529;28;20151;-62
2022/01/22 23:00:44;;;;;;;11.75;10.55;;;;;;;7.88;70.70;101878.38;10319267;28;20963;-63
2022/01/22 23:05:47;;;;;;;12.20;10.83;;;;;;;7.89;70.49;101880.13;10318877;28;20073;-62
2022/01/22 23:10:51;;;;;;;13.10;11.68;;;;;;;7.85;70.03;101883.81;10319610;28;20091;-63
2022/01/22 23:15:58;;;;;;;12.00;10.07;;;;;;;7.85;70.20;101878.50;10325790;28;20122;-63
2022/01/22 23:21:29;;;;;;;12.70;9.60;;;;;;;7.91;69.49;101891.50;10325170;28;20057;-63
2022/01/22 23:26:32;;;;;;;10.57;9.48;;;;;;;7.87;69.67;101881.97;10325102;28;20075;-63
2022/01/22 23:31:40;;;;;;;11.30;9.52;;;;;;;7.94;69.54;101876.34;10326390;28;20168;-63
